Cunningham, Kansas
Current Conditions -  °F | °C
As of 10:55 AM on Monday 22 Dec 2014 (Local Time) from KPTT Reporting Station
Clear Clear  
Wind Chill: 38°   Ceiling: Unl
Heat Index: 46°   Visibility: 10mi
Dew Point: 36°   Wind: 26mph
Humidity: 66%   Direction: 340°NNW
Pressure: 29.62"   Gusts: 32mph
Location:  37.64°N, 98.43°W
Report Text: KPTT 221655Z AUTO 34023G28KT 10SM CLR 08/02 A2962 RMK AO2
Loading
Personal Weather Stations






























Interactive Weather Map New forecast layout! Learn more

10-Day Weather Forecast

Advertisements
Track Severe Weather on mobile